Time;durP1;ratioP1;P1;durP2;ratioP2;P2;SDS_P1;SDS_P2;PMS_P1;PMS_P2;Temp;Humidity;BMP_temperature;BMP_pressure;BME280_temperature;BME280_humidity;BME280_pressure;Samples;Min_cycle;Max_cycle;Signal;HPM_P1;HPM_P2
2023/06/23 00:02:00;;;;;;;10.63;8.23;;;;;;;16.37;100.00;101631.13;5043031;28;20533;-73
2023/06/23 00:04:27;;;;;;;10.00;7.68;;;;;;;16.37;100.00;101633.78;5046273;28;20039;-73
2023/06/23 00:06:54;;;;;;;12.10;8.60;;;;;;;16.37;100.00;101627.63;5046175;28;20049;-72
2023/06/23 00:09:22;;;;;;;13.38;8.63;;;;;;;16.37;100.00;101612.50;5044685;28;20042;-72
2023/06/23 00:11:49;;;;;;;11.25;8.30;;;;;;;16.36;100.00;101620.56;5044160;28;20453;-73
2023/06/23 00:14:16;;;;;;;13.07;8.95;;;;;;;16.36;100.00;101626.75;5045981;28;20038;-72
2023/06/23 00:16:43;;;;;;;11.57;8.07;;;;;;;16.35;100.00;101630.31;5044428;28;20520;-73
2023/06/23 00:19:11;;;;;;;13.20;8.55;;;;;;;16.32;100.00;101638.47;5044564;28;20045;-72
2023/06/23 00:21:38;;;;;;;12.43;9.23;;;;;;;16.30;100.00;101640.31;5046891;28;20049;-72
2023/06/23 00:24:06;;;;;;;12.00;8.18;;;;;;;16.27;100.00;101646.63;5044272;28;20046;-72
2023/06/23 00:26:34;;;;;;;13.75;8.50;;;;;;;16.26;100.00;101657.31;5039348;28;20157;-73
2023/06/23 00:29:01;;;;;;;12.23;9.18;;;;;;;16.24;100.00;101662.72;5046122;28;20045;-73
2023/06/23 00:31:28;;;;;;;14.52;9.88;;;;;;;16.25;100.00;101659.13;5041551;28;20064;-72
2023/06/23 00:33:56;;;;;;;16.02;9.57;;;;;;;16.24;100.00;101662.72;5045824;28;20053;-73
2023/06/23 00:36:23;;;;;;;18.60;10.20;;;;;;;16.24;100.00;101664.50;5044893;28;20052;-72
2023/06/23 00:38:52;;;;;;;14.07;10.07;;;;;;;16.22;100.00;101663.72;5047104;28;20120;-73
2023/06/23 00:41:19;;;;;;;15.70;10.35;;;;;;;16.20;100.00;101674.41;5046274;28;20513;-73
2023/06/23 00:43:50;;;;;;;15.63;10.43;;;;;;;16.19;100.00;101682.44;5048913;28;20067;-72
2023/06/23 00:46:20;;;;;;;17.17;11.40;;;;;;;16.14;100.00;101686.16;5049271;28;20453;-72
2023/06/23 00:48:48;;;;;;;14.73;10.50;;;;;;;16.09;100.00;101673.97;5048539;28;20544;-73
2023/06/23 00:51:16;;;;;;;13.40;9.75;;;;;;;16.05;100.00;101675.88;5049375;28;20168;-73
2023/06/23 00:53:49;;;;;;;16.02;10.60;;;;;;;16.00;100.00;101669.91;5046546;28;20088;-73
2023/06/23 00:56:23;;;;;;;15.63;10.15;;;;;;;15.96;100.00;101682.44;5046077;28;20057;-73
2023/06/23 00:58:51;;;;;;;15.23;9.85;;;;;;;15.95;100.00;101688.69;5047221;28;20475;-73
2023/06/23 01:01:20;;;;;;;14.73;9.85;;;;;;;15.90;100.00;101692.47;5045179;28;20071;-74
2023/06/23 01:03:48;;;;;;;15.07;10.02;;;;;;;15.85;100.00;101697.97;5043067;28;20049;-75
2023/06/23 01:06:52;;;;;;;14.45;10.85;;;;;;;15.80;100.00;101699.88;5049157;28;20124;-75
2023/06/23 01:09:49;;;;;;;15.75;10.98;;;;;;;15.74;100.00;101703.63;5041734;28;20050;-75
2023/06/23 01:12:48;;;;;;;15.88;10.90;;;;;;;15.68;100.00;101701.22;5045937;28;20038;-75
2023/06/23 01:15:33;;;;;;;17.02;11.05;;;;;;;15.63;100.00;101714.69;5031507;28;20072;-74
2023/06/23 01:18:13;;;;;;;16.10;11.18;;;;;;;15.61;100.00;101716.53;5042932;28;20051;-75
2023/06/23 01:20:45;;;;;;;20.33;12.10;;;;;;;15.57;100.00;101712.25;5047306;28;20054;-74
2023/06/23 01:23:45;;;;;;;22.77;12.27;;;;;;;15.55;100.00;101713.22;5047533;28;20842;-73
2023/06/23 01:26:43;;;;;;;16.80;12.23;;;;;;;15.52;100.00;101720.38;5046626;28;20052;-74
2023/06/23 01:29:16;;;;;;;23.67;13.07;;;;;;;15.47;100.00;101717.06;5045186;28;20049;-74
2023/06/23 01:32:00;;;;;;;22.77;13.48;;;;;;;15.44;100.00;101724.28;5029836;28;20041;-74
2023/06/23 01:34:49;;;;;;;22.65;13.85;;;;;;;15.43;100.00;101727.84;5035673;28;20037;-74
2023/06/23 01:37:30;;;;;;;20.70;13.35;;;;;;;15.41;100.00;101735.88;5045166;28;20052;-74
2023/06/23 01:40:09;;;;;;;22.08;13.70;;;;;;;15.40;100.00;101730.63;5036102;28;20065;-73
2023/06/23 01:42:46;;;;;;;20.83;12.93;;;;;;;15.41;100.00;101733.22;5045044;28;20100;-74
2023/06/23 01:45:16;;;;;;;20.15;12.90;;;;;;;15.42;100.00;101745.56;5045678;28;20054;-74
2023/06/23 01:47:48;;;;;;;23.52;13.43;;;;;;;15.42;100.00;101750.03;5046861;28;20057;-74
2023/06/23 01:50:19;;;;;;;18.00;12.77;;;;;;;15.42;100.00;101750.03;5046294;28;20122;-74
2023/06/23 01:52:51;;;;;;;17.17;12.30;;;;;;;15.38;100.00;101746.63;5047918;28;20073;-72
2023/06/23 01:55:21;;;;;;;17.15;12.73;;;;;;;15.38;100.00;101757.25;5040867;28;20037;-72
2023/06/23 01:57:51;;;;;;;17.33;11.95;;;;;;;15.38;100.00;101763.41;5046670;28;20045;-71
2023/06/23 02:00:22;;;;;;;19.00;12.63;;;;;;;15.40;100.00;101760.72;5043393;28;20045;-73
2023/06/23 02:02:53;;;;;;;16.90;12.88;;;;;;;15.39;100.00;101761.63;5046138;28;20050;-74
2023/06/23 02:05:25;;;;;;;20.27;12.88;;;;;;;15.40;100.00;101762.50;5045048;28;20108;-74
2023/06/23 02:07:55;;;;;;;19.45;12.57;;;;;;;15.37;100.00;101759.03;5042877;28;20045;-74
2023/06/23 02:10:24;;;;;;;22.73;14.00;;;;;;;15.37;100.00;101764.34;5040821;28;20076;-75
2023/06/23 02:12:56;;;;;;;20.02;13.13;;;;;;;15.39;100.00;101772.25;5045953;28;20820;-74
2023/06/23 02:15:26;;;;;;;19.35;14.02;;;;;;;15.37;100.00;101772.31;5045682;28;20065;-74
2023/06/23 02:17:55;;;;;;;19.42;13.82;;;;;;;15.36;100.00;101770.56;5044450;28;20056;-74
2023/06/23 02:20:23;;;;;;;22.30;15.00;;;;;;;15.35;100.00;101768.84;5046020;28;20464;-74
2023/06/23 02:22:53;;;;;;;23.27;14.70;;;;;;;15.35;100.00;101771.50;5045090;28;20072;-74
2023/06/23 02:25:22;;;;;;;26.63;14.85;;;;;;;15.36;100.00;101775.88;5046502;28;20111;-74
2023/06/23 02:27:51;;;;;;;19.38;15.10;;;;;;;15.37;100.00;101766.13;5042172;28;20046;-74
2023/06/23 02:30:18;;;;;;;22.63;15.13;;;;;;;15.40;100.00;101767.81;5046926;28;20049;-74
2023/06/23 02:32:47;;;;;;;22.05;15.10;;;;;;;15.42;100.00;101765.97;5044372;28;20820;-74
2023/06/23 02:35:16;;;;;;;22.52;15.93;;;;;;;15.42;100.00;101777.44;5045723;28;20108;-75
2023/06/23 02:37:52;;;;;;;27.52;17.15;;;;;;;15.41;100.00;101789.03;5043117;28;20041;-74
2023/06/23 02:40:25;;;;;;;29.50;17.50;;;;;;;15.37;100.00;101793.56;5045188;28;20049;-74
2023/06/23 02:43:05;;;;;;;28.17;19.08;;;;;;;15.33;100.00;101802.56;5043542;28;20116;-75
2023/06/23 02:45:41;;;;;;;29.45;18.52;;;;;;;15.33;100.00;101805.22;5037592;28;20047;-74
2023/06/23 02:48:18;;;;;;;27.38;18.40;;;;;;;15.34;100.00;101808.75;5047111;28;20133;-75
2023/06/23 02:50:48;;;;;;;31.15;18.90;;;;;;;15.32;100.00;101815.88;5046428;28;20041;-75
2023/06/23 02:53:25;;;;;;;30.70;19.77;;;;;;;15.30;100.00;101815.09;5046422;28;20049;-75
2023/06/23 02:56:19;;;;;;;33.40;20.02;;;;;;;15.29;100.00;101810.72;5043779;28;20046;-75
2023/06/23 02:58:51;;;;;;;34.30;19.48;;;;;;;15.28;100.00;101817.78;5044091;28;20052;-75
2023/06/23 03:01:22;;;;;;;28.52;20.15;;;;;;;15.25;100.00;101817.03;5045835;28;20049;-76
2023/06/23 03:03:50;;;;;;;34.00;21.55;;;;;;;15.25;100.00;101838.28;5047411;28;20045;-76
2023/06/23 03:06:22;;;;;;;30.83;21.02;;;;;;;15.24;100.00;101840.09;5044332;28;20049;-76
2023/06/23 03:08:50;;;;;;;36.05;22.65;;;;;;;15.22;100.00;101841.91;5046662;28;20572;-75
2023/06/23 03:11:19;;;;;;;30.98;21.58;;;;;;;15.20;100.00;101841.09;5045116;28;20080;-75
2023/06/23 03:13:48;;;;;;;34.08;22.50;;;;;;;15.18;100.00;101833.19;5046278;28;20850;-75
2023/06/23 03:16:30;;;;;;;33.13;23.02;;;;;;;15.20;100.00;101846.41;5046749;28;20063;-74
2023/06/23 03:19:39;;;;;;;37.13;24.48;;;;;;;15.19;100.00;101852.63;5028768;28;20046;-75
2023/06/23 03:22:18;;;;;;;39.85;25.33;;;;;;;15.19;100.00;101866.81;5037221;28;20460;-75
2023/06/23 03:24:53;;;;;;;37.92;24.65;;;;;;;15.20;100.00;101870.31;5041750;28;20092;-73
2023/06/23 03:27:26;;;;;;;41.30;27.83;;;;;;;15.21;100.00;101877.38;5043753;28;20049;-74
2023/06/23 03:30:02;;;;;;;41.97;28.48;;;;;;;15.21;100.00;101872.91;5043366;28;20092;-75
2023/06/23 03:32:38;;;;;;;43.40;28.77;;;;;;;15.21;100.00;101872.91;5044964;28;20048;-74
2023/06/23 03:35:12;;;;;;;43.33;29.70;;;;;;;15.17;100.00;101865.09;5043126;28;20141;-75
2023/06/23 03:37:47;;;;;;;46.03;29.87;;;;;;;15.20;100.00;101878.28;5044234;28;20115;-74
2023/06/23 03:40:20;;;;;;;45.78;29.98;;;;;;;15.21;100.00;101874.72;5045367;28;20069;-74
2023/06/23 03:42:55;;;;;;;52.78;31.33;;;;;;;15.23;100.00;101880.84;5045765;28;20045;-75
2023/06/23 03:45:25;;;;;;;43.15;29.30;;;;;;;15.26;100.00;101883.38;5046530;28;20045;-74
2023/06/23 03:48:03;;;;;;;43.92;29.48;;;;;;;15.30;100.00;101889.47;5045487;28;20069;-72
2023/06/23 03:50:36;;;;;;;44.97;29.23;;;;;;;15.31;100.00;101892.06;5027707;28;20042;-72
2023/06/23 03:53:06;;;;;;;46.55;30.38;;;;;;;15.29;100.00;101887.75;5046928;28;20045;-71
2023/06/23 03:55:38;;;;;;;41.72;28.65;;;;;;;15.29;100.00;101893.06;5049484;28;20037;-72
2023/06/23 03:58:07;;;;;;;42.78;26.92;;;;;;;15.25;100.00;101897.59;5059813;28;20573;-73
2023/06/23 04:00:38;;;;;;;43.60;27.10;;;;;;;15.26;100.00;101893.16;5046016;28;20063;-72
2023/06/23 04:03:08;;;;;;;43.72;27.58;;;;;;;15.24;100.00;101895.88;5045061;28;20049;-73
2023/06/23 04:05:39;;;;;;;41.03;27.63;;;;;;;15.25;100.00;101899.38;5045002;28;20042;-72
2023/06/23 04:08:10;;;;;;;37.53;27.15;;;;;;;15.29;100.00;101899.22;5036494;28;20123;-73
2023/06/23 04:10:39;;;;;;;41.80;27.25;;;;;;;15.33;100.00;101895.56;5032629;28;20049;-73
2023/06/23 04:13:08;;;;;;;39.08;26.05;;;;;;;15.38;100.00;101898.06;5047772;28;20100;-72
2023/06/23 04:15:38;;;;;;;40.13;27.05;;;;;;;15.42;100.00;101888.19;5048636;28;20042;-73
2023/06/23 04:18:10;;;;;;;39.10;27.63;;;;;;;15.45;100.00;101890.75;5045666;28;20787;-73
2023/06/23 04:20:39;;;;;;;40.05;28.05;;;;;;;15.52;100.00;101900.25;5045734;28;20049;-73
2023/06/23 04:23:08;;;;;;;39.67;27.27;;;;;;;15.60;100.00;101899.97;5049548;28;21285;-74
2023/06/23 04:25:38;;;;;;;37.38;26.30;;;;;;;15.66;100.00;101910.38;5048908;28;20045;-73
2023/06/23 04:28:11;;;;;;;37.65;26.55;;;;;;;15.72;100.00;101911.97;5045988;28;20488;-74
2023/06/23 04:30:41;;;;;;;34.53;23.60;;;;;;;15.80;100.00;101921.41;5041862;28;20041;-75
2023/06/23 04:33:08;;;;;;;34.13;25.17;;;;;;;15.89;100.00;101920.25;5039228;28;20069;-72
2023/06/23 04:35:37;;;;;;;32.25;24.30;;;;;;;15.91;100.00;101917.53;5039729;28;20079;-72
2023/06/23 04:38:13;;;;;;;38.83;24.77;;;;;;;15.96;100.00;101921.78;5042104;28;20053;-72
2023/06/23 04:40:56;;;;;;;34.22;24.42;;;;;;;16.06;100.00;101937.41;5042084;28;20045;-71
2023/06/23 04:43:40;;;;;;;30.42;22.80;;;;;;;16.11;100.00;101940.75;5039695;28;20042;-72
2023/06/23 04:46:19;;;;;;;30.92;23.63;;;;;;;16.14;100.00;101949.47;5039178;28;20525;-72
2023/06/23 04:48:56;;;;;;;31.92;23.52;;;;;;;16.14;100.00;101951.28;5041970;28;20061;-71
2023/06/23 04:51:31;;;;;;;31.50;24.15;;;;;;;16.19;100.00;101959.09;5037754;28;20081;-72
2023/06/23 04:54:10;;;;;;;31.30;23.30;;;;;;;16.24;100.00;101960.66;5039381;28;20045;-72
2023/06/23 04:56:40;;;;;;;29.90;22.77;;;;;;;16.29;100.00;101968.50;5038233;28;20282;-72
2023/06/23 04:59:11;;;;;;;30.35;22.88;;;;;;;16.33;100.00;101971.91;5036873;28;20224;-72
2023/06/23 05:01:42;;;;;;;32.42;24.95;;;;;;;16.36;100.00;101966.47;5041018;28;20062;-72
2023/06/23 05:04:11;;;;;;;31.42;24.17;;;;;;;16.42;100.00;101968.91;5041485;28;20045;-73
2023/06/23 05:06:41;;;;;;;32.83;24.23;;;;;;;16.51;100.00;101975.69;5047147;28;20095;-73
2023/06/23 05:09:10;;;;;;;30.42;23.85;;;;;;;16.60;100.00;101976.19;5048701;28;20045;-73
2023/06/23 05:11:42;;;;;;;29.65;21.77;;;;;;;16.76;100.00;101981.78;5041832;28;20124;-73
2023/06/23 05:14:12;;;;;;;34.10;24.73;;;;;;;16.92;100.00;101970.56;5039195;28;20072;-73
2023/06/23 05:16:43;;;;;;;33.25;23.55;;;;;;;17.66;100.00;101985.38;5049033;28;20559;-73
2023/06/23 05:19:11;;;;;;;32.10;22.17;;;;;;;18.13;96.94;101984.31;5057357;28;20056;-73
2023/06/23 05:21:43;;;;;;;29.58;22.67;;;;;;;18.33;96.00;101980.72;5054062;28;20088;-73
2023/06/23 05:24:15;;;;;;;26.55;21.15;;;;;;;19.97;89.75;101983.59;5047661;28;20196;-73
2023/06/23 05:26:43;;;;;;;27.80;19.98;;;;;;;21.24;82.56;101984.78;5044833;28;20038;-73
2023/06/23 05:29:15;;;;;;;23.27;18.80;;;;;;;21.77;78.90;101989.81;5041579;28;20073;-73
2023/06/23 05:31:44;;;;;;;24.70;18.98;;;;;;;22.76;76.13;101994.50;5043197;28;20047;-73
2023/06/23 05:34:17;;;;;;;23.50;17.90;;;;;;;22.93;72.48;101989.84;5041571;28;20062;-73
2023/06/23 05:36:48;;;;;;;25.63;17.92;;;;;;;22.72;74.01;101997.50;5036911;28;20045;-71
2023/06/23 05:39:19;;;;;;;22.73;18.15;;;;;;;22.02;76.82;102008.00;5028204;28;20104;-71
2023/06/23 05:41:47;;;;;;;23.55;18.27;;;;;;;21.41;77.38;101999.91;5053096;28;20608;-71
2023/06/23 05:44:14;;;;;;;24.08;18.75;;;;;;;20.67;77.75;102000.47;5042000;28;20611;-69
2023/06/23 05:46:44;;;;;;;23.25;18.17;;;;;;;20.37;80.60;101991.34;5038544;28;20606;-69
2023/06/23 05:49:18;;;;;;;25.33;19.33;;;;;;;20.23;81.38;102002.78;5040875;28;20084;-71
2023/06/23 05:51:55;;;;;;;28.10;21.48;;;;;;;20.84;79.47;102007.59;5042641;28;20536;-71
2023/06/23 05:54:27;;;;;;;31.25;20.80;;;;;;;20.49;80.75;102005.88;5056424;28;20045;-70
2023/06/23 05:57:00;;;;;;;28.45;19.92;;;;;;;20.50;81.54;102010.28;5054235;28;20541;-71
2023/06/23 05:59:38;;;;;;;32.28;20.92;;;;;;;20.84;79.73;102023.69;5043731;28;20646;-72
2023/06/23 06:02:15;;;;;;;30.58;21.00;;;;;;;20.27;82.87;102020.41;5046923;28;20525;-72
2023/06/23 06:04:48;;;;;;;29.88;19.83;;;;;;;21.01;79.46;102018.25;5061792;28;20048;-69
2023/06/23 06:07:20;;;;;;;30.10;20.27;;;;;;;21.04;79.15;102028.81;5046265;28;20560;-71
2023/06/23 06:09:51;;;;;;;29.30;19.58;;;;;;;22.16;76.81;102025.06;5044094;28;20128;-70
2023/06/23 06:12:18;;;;;;;30.92;19.65;;;;;;;;;;5047528;28;20450;-71
2023/06/23 06:14:48;;;;;;;26.08;18.58;;;;;;;22.79;71.55;102039.13;5052143;28;20064;-72
2023/06/23 06:17:18;;;;;;;27.70;19.77;;;;;;;22.34;72.95;102036.50;5044647;28;20139;-72
2023/06/23 06:19:48;;;;;;;27.63;18.92;;;;;;;22.44;72.80;102043.06;5046363;28;20048;-72
2023/06/23 06:22:16;;;;;;;29.92;19.73;;;;;;;21.64;74.90;102047.84;5053641;28;20046;-73
2023/06/23 06:24:46;;;;;;;31.50;20.38;;;;;;;21.19;77.33;102051.19;5039354;28;20045;-71
2023/06/23 06:27:15;;;;;;;28.35;19.42;;;;;;;20.81;79.27;102054.19;5056462;28;20281;-73
2023/06/23 06:29:43;;;;;;;31.27;19.73;;;;;;;20.24;81.89;102063.44;5045958;28;20049;-74
2023/06/23 06:32:14;;;;;;;29.17;20.23;;;;;;;20.14;82.26;102070.22;5048848;28;20149;-72
2023/06/23 06:34:44;;;;;;;29.98;19.40;;;;;;;19.76;83.09;102068.50;5056470;28;20121;-73
2023/06/23 06:37:12;;;;;;;26.13;18.67;;;;;;;19.42;84.26;102070.13;5028233;28;20045;-74
2023/06/23 06:39:42;;;;;;;28.60;19.45;;;;;;;19.20;85.41;102070.31;5046153;28;20042;-74
2023/06/23 06:42:09;;;;;;;26.38;19.30;;;;;;;19.18;86.43;102075.69;5050604;28;20116;-73
2023/06/23 06:44:39;;;;;;;30.80;19.60;;;;;;;19.18;86.71;102081.03;5051632;28;20044;-74
2023/06/23 06:47:11;;;;;;;29.63;19.10;;;;;;;19.19;86.96;102081.94;5055865;28;20041;-72
2023/06/23 06:49:41;;;;;;;27.40;19.30;;;;;;;19.17;87.83;102081.13;5060180;28;20045;-71
2023/06/23 06:52:08;;;;;;;30.00;19.85;;;;;;;19.21;88.69;102085.41;5050558;28;20046;-73
2023/06/23 06:54:35;;;;;;;26.25;19.05;;;;;;;19.33;89.10;102090.16;5062175;28;20073;-73
2023/06/23 06:57:03;;;;;;;32.50;19.42;;;;;;;19.50;88.33;102086.66;5055248;28;20045;-74
2023/06/23 06:59:31;;;;;;;29.65;18.00;;;;;;;19.69;87.60;102088.44;5054069;28;20145;-73
2023/06/23 07:01:59;;;;;;;31.27;19.30;;;;;;;19.83;86.10;102094.00;5054946;28;20038;-73
2023/06/23 07:04:28;;;;;;;28.30;17.38;;;;;;;19.89;84.83;102095.53;5052254;28;20636;-70
2023/06/23 07:06:55;;;;;;;28.13;17.45;;;;;;;20.00;83.80;102100.31;5043224;28;20135;-71
2023/06/23 07:09:22;;;;;;;23.40;16.88;;;;;;;20.01;83.12;102097.59;5057522;28;20041;-71
2023/06/23 07:11:56;;;;;;;25.35;17.48;;;;;;;19.92;83.58;102108.75;5061061;28;20509;-72
2023/06/23 07:14:23;;;;;;;24.92;17.63;;;;;;;19.96;84.08;102107.66;5046827;28;20434;-70
2023/06/23 07:16:50;;;;;;;24.45;16.30;;;;;;;20.00;83.11;102111.03;5045556;28;20199;-70
2023/06/23 07:19:17;;;;;;;23.38;15.88;;;;;;;20.09;83.25;102115.06;5045971;28;20516;-71
2023/06/23 07:21:45;;;;;;;21.83;16.30;;;;;;;20.01;82.13;102110.09;5044504;28;20045;-72
2023/06/23 07:24:12;;;;;;;27.50;16.75;;;;;;;20.04;82.91;102109.09;5062760;28;20122;-74
2023/06/23 07:26:40;;;;;;;28.95;16.92;;;;;;;19.96;83.27;102115.66;5049692;28;20053;-71
2023/06/23 07:29:07;;;;;;;22.63;15.35;;;;;;;19.99;82.67;102118.19;5047237;28;20056;-72
2023/06/23 07:31:38;;;;;;;21.83;15.70;;;;;;;20.08;82.23;102116.00;5058048;28;20044;-75
2023/06/23 07:34:05;;;;;;;23.15;15.63;;;;;;;20.14;81.27;102129.09;5049142;28;20045;-72
2023/06/23 07:36:32;;;;;;;27.08;16.05;;;;;;;20.15;80.46;102126.34;5041742;28;20046;-72
2023/06/23 07:38:59;;;;;;;22.23;15.77;;;;;;;20.16;81.02;102124.50;5040754;28;20470;-74
2023/06/23 07:41:26;;;;;;;24.10;16.67;;;;;;;20.24;81.78;102119.66;5053488;28;20092;-70
2023/06/23 07:43:53;;;;;;;19.83;14.60;;;;;;;20.30;81.17;102126.47;5044390;28;20041;-73
2023/06/23 07:46:20;;;;;;;23.13;15.35;;;;;;;20.36;80.20;102123.50;5050882;28;20560;-71
2023/06/23 07:48:48;;;;;;;20.83;13.60;;;;;;;20.38;78.49;102131.44;5047695;28;20092;-70
2023/06/23 07:51:15;;;;;;;17.92;13.68;;;;;;;20.40;78.74;102122.38;5039252;28;20107;-73
2023/06/23 07:53:42;;;;;;;17.17;12.82;;;;;;;20.46;78.23;102126.56;5037771;28;20080;-72
2023/06/23 07:56:24;;;;;;;19.02;13.23;;;;;;;20.52;76.44;102125.38;5039620;28;20038;-71
2023/06/23 07:58:51;;;;;;;24.27;14.75;;;;;;;20.51;76.43;102129.00;5049542;28;20506;-74
2023/06/23 08:01:18;;;;;;;21.20;14.10;;;;;;;20.52;76.59;102128.06;5045766;28;20048;-72
2023/06/23 08:03:46;;;;;;;17.88;13.75;;;;;;;20.57;76.18;102123.34;5046385;28;20041;-70
2023/06/23 08:06:14;;;;;;;18.55;13.18;;;;;;;20.59;76.91;102122.28;5046303;28;20489;-72
2023/06/23 08:08:42;;;;;;;22.52;14.38;;;;;;;20.68;76.57;102126.31;5048102;28;20040;-74
2023/06/23 08:11:09;;;;;;;21.33;13.82;;;;;;;20.76;77.39;102116.09;5046282;28;20041;-72
2023/06/23 08:13:38;;;;;;;20.48;14.93;;;;;;;20.90;77.55;102133.25;5047779;28;20652;-73
2023/06/23 08:16:05;;;;;;;22.50;14.68;;;;;;;20.97;77.30;102129.28;5048982;28;20045;-72
2023/06/23 08:18:32;;;;;;;18.60;13.38;;;;;;;21.07;77.09;102135.00;5044961;28;20042;-73
2023/06/23 08:20:59;;;;;;;16.60;13.80;;;;;;;21.18;76.78;102140.63;5048190;28;20041;-71
2023/06/23 08:23:26;;;;;;;16.33;12.55;;;;;;;21.26;73.88;102140.22;5049066;28;20042;-71
2023/06/23 08:25:53;;;;;;;20.15;15.25;;;;;;;21.33;76.93;102136.25;5049267;28;20512;-71
2023/06/23 08:28:21;;;;;;;19.65;15.55;;;;;;;21.46;77.25;102136.44;5046300;28;20045;-72
2023/06/23 08:30:48;;;;;;;20.70;15.15;;;;;;;21.45;76.21;102140.06;5047939;28;20076;-72
2023/06/23 08:33:15;;;;;;;19.13;15.25;;;;;;;21.50;75.78;102148.72;5047575;28;20438;-71
2023/06/23 08:35:42;;;;;;;17.45;13.65;;;;;;;21.56;76.88;102144.81;5047567;28;20170;-70
2023/06/23 08:38:13;;;;;;;16.58;12.65;;;;;;;21.68;74.54;102154.91;5042233;28;20053;-71
2023/06/23 08:40:41;;;;;;;19.13;12.52;;;;;;;21.70;73.06;102154.81;5044290;28;20131;-72
2023/06/23 08:43:10;;;;;;;16.13;13.13;;;;;;;21.75;72.82;102157.22;5046430;28;20482;-74
2023/06/23 08:45:44;;;;;;;21.15;12.57;;;;;;;21.83;73.50;102160.31;5048620;28;20037;-72
2023/06/23 08:48:11;;;;;;;17.33;12.95;;;;;;;21.98;72.93;102161.25;5047777;28;20073;-73
2023/06/23 08:50:40;;;;;;;19.42;13.57;;;;;;;22.06;71.64;102156.34;5047354;28;20045;-72
2023/06/23 08:53:07;;;;;;;14.63;11.55;;;;;;;22.13;70.25;102164.91;5047934;28;20489;-71
2023/06/23 08:55:35;;;;;;;19.13;13.18;;;;;;;22.16;69.05;102160.22;5048186;28;20156;-72
2023/06/23 08:58:02;;;;;;;16.55;12.60;;;;;;;22.19;68.84;102169.91;5046946;28;20042;-73
2023/06/23 09:00:29;;;;;;;17.75;12.43;;;;;;;22.25;70.99;102172.22;5047047;28;20038;-71
2023/06/23 09:02:57;;;;;;;17.33;12.27;;;;;;;22.37;72.37;102170.63;5049997;28;20052;-73
2023/06/23 09:05:25;;;;;;;18.40;12.20;;;;;;;22.51;69.53;102180.59;5053613;28;20528;-73
2023/06/23 09:07:52;;;;;;;17.00;12.13;;;;;;;22.58;69.96;102187.31;5046844;28;20527;-72
2023/06/23 09:10:19;;;;;;;19.42;11.23;;;;;;;22.68;69.05;102189.44;5039767;28;20046;-73
2023/06/23 09:13:08;;;;;;;14.23;9.75;;;;;;;22.73;65.35;102195.41;5038604;28;20342;-73
2023/06/23 09:15:35;;;;;;;11.48;9.43;;;;;;;22.75;66.95;102191.69;5043355;28;20042;-73
2023/06/23 09:18:22;;;;;;;15.70;8.80;;;;;;;22.86;64.53;102200.91;5047592;28;20088;-73
2023/06/23 09:20:52;;;;;;;15.70;9.88;;;;;;;22.99;64.17;102201.91;5046486;28;20121;-72
2023/06/23 09:23:22;;;;;;;12.18;9.93;;;;;;;23.07;64.88;102204.97;5046329;28;20052;-72
2023/06/23 09:25:54;;;;;;;13.82;10.75;;;;;;;23.19;63.24;102210.56;5047524;28;20844;-72
2023/06/23 09:28:28;;;;;;;13.48;11.10;;;;;;;23.23;63.51;102212.97;5046514;28;20454;-73
2023/06/23 09:30:58;;;;;;;14.65;11.30;;;;;;;23.32;65.63;102210.66;5047052;28;20837;-73
2023/06/23 09:33:27;;;;;;;15.52;11.80;;;;;;;23.42;64.35;102209.13;5046495;28;20504;-73
2023/06/23 09:35:56;;;;;;;17.17;12.90;;;;;;;23.46;63.66;102212.47;5047996;28;20144;-71
2023/06/23 09:38:26;;;;;;;20.60;9.50;;;;;;;23.47;60.96;102208.81;5038988;28;20398;-72
2023/06/23 09:41:19;;;;;;;17.25;9.88;;;;;;;23.59;61.90;102213.44;5033916;28;20456;-74
2023/06/23 09:43:52;;;;;;;16.13;7.90;;;;;;;23.73;61.36;102212.53;5045912;28;20472;-72
2023/06/23 09:46:24;;;;;;;11.93;7.97;;;;;;;23.87;59.50;102217.88;5046352;28;20525;-73
2023/06/23 09:48:53;;;;;;;15.25;8.30;;;;;;;23.97;59.17;102217.28;5046100;28;20069;-71
2023/06/23 09:51:20;;;;;;;10.13;7.07;;;;;;;24.04;59.17;102226.72;5046790;28;20049;-71
2023/06/23 09:53:50;;;;;;;9.10;6.50;;;;;;;24.14;57.91;102226.97;5047885;28;20046;-71
2023/06/23 09:56:22;;;;;;;10.60;5.68;;;;;;;24.18;56.02;102229.34;5047525;28;20939;-72
2023/06/23 09:58:50;;;;;;;9.10;6.22;;;;;;;24.21;56.47;102219.34;5046554;28;20414;-72
2023/06/23 10:01:19;;;;;;;13.50;6.07;;;;;;;24.29;57.05;102211.59;5044101;28;20493;-73
2023/06/23 10:03:49;;;;;;;30.83;7.60;;;;;;;24.41;56.97;102207.22;5046960;28;20053;-72
2023/06/23 10:06:26;;;;;;;14.32;6.30;;;;;;;24.51;57.10;102211.03;5047168;28;20041;-73
2023/06/23 10:09:00;;;;;;;8.98;6.60;;;;;;;24.59;55.89;102200.56;5046863;28;20139;-73
2023/06/23 10:11:39;;;;;;;9.50;6.45;;;;;;;24.64;55.55;102214.59;5046944;28;20045;-75
2023/06/23 10:14:11;;;;;;;13.15;6.97;;;;;;;24.68;55.64;102207.19;5032050;28;20050;-73
2023/06/23 10:16:41;;;;;;;8.60;6.90;;;;;;;24.80;56.35;102208.19;5045058;28;20125;-74
2023/06/23 10:19:08;;;;;;;14.35;6.72;;;;;;;24.93;55.58;102208.19;5046273;28;20041;-75
2023/06/23 10:21:35;;;;;;;10.98;6.95;;;;;;;25.02;54.80;102218.31;5046386;28;20483;-74
2023/06/23 10:24:07;;;;;;;9.60;6.60;;;;;;;25.05;54.89;102203.75;5047512;28;20041;-75
2023/06/23 10:26:37;;;;;;;10.00;6.57;;;;;;;25.11;54.25;102212.28;5046904;28;20049;-74
2023/06/23 10:29:12;;;;;;;12.85;5.95;;;;;;;25.18;56.16;102203.75;5046633;28;20041;-73
2023/06/23 10:31:41;;;;;;;7.38;6.10;;;;;;;25.32;54.80;102203.63;5044534;28;20589;-73
2023/06/23 10:34:13;;;;;;;10.23;6.68;;;;;;;25.40;52.74;102200.41;5045591;28;20045;-72
2023/06/23 10:36:43;;;;;;;6.72;5.80;;;;;;;25.46;52.77;102210.75;5047489;28;20045;-73
2023/06/23 10:39:14;;;;;;;9.05;5.55;;;;;;;25.56;53.22;102206.41;5037782;28;20064;-72
2023/06/23 10:41:45;;;;;;;8.60;6.43;;;;;;;25.70;53.38;102204.53;5028388;28;20069;-72
2023/06/23 10:44:15;;;;;;;11.88;7.03;;;;;;;25.85;51.90;102202.53;5039593;28;20574;-73
2023/06/23 10:46:43;;;;;;;10.57;8.05;;;;;;;25.92;53.46;102202.97;5044505;28;20052;-72
2023/06/23 10:49:12;;;;;;;15.93;7.22;;;;;;;25.99;53.60;102205.09;5045464;28;20619;-71
2023/06/23 10:51:40;;;;;;;12.10;8.20;;;;;;;26.16;52.57;102202.97;5045362;28;20068;-71
2023/06/23 10:54:10;;;;;;;13.20;7.90;;;;;;;26.28;52.45;102203.88;5043642;28;20096;-72
2023/06/23 10:56:42;;;;;;;8.93;7.10;;;;;;;26.35;52.01;102203.31;5047142;28;20040;-73
2023/06/23 10:59:20;;;;;;;12.48;5.95;;;;;;;26.12;49.34;102213.16;5045832;28;20049;-71
2023/06/23 11:01:59;;;;;;;8.50;5.75;;;;;;;26.20;50.38;102209.84;5032856;28;20089;-71
2023/06/23 11:04:32;;;;;;;12.80;7.68;;;;;;;26.25;48.56;102218.50;5040955;28;20041;-72
2023/06/23 11:07:05;;;;;;;10.30;7.57;;;;;;;26.28;50.17;102206.59;5045869;28;20512;-71
2023/06/23 11:09:54;;;;;;;8.63;6.47;;;;;;;26.13;50.77;102205.91;5041450;28;20540;-74
2023/06/23 11:12:37;;;;;;;9.88;7.35;;;;;;;26.31;50.04;102215.31;5047087;28;20060;-73
2023/06/23 11:15:16;;;;;;;7.75;6.57;;;;;;;26.36;49.79;102204.16;5045655;28;20548;-71
2023/06/23 11:17:45;;;;;;;8.38;6.75;;;;;;;26.22;49.86;102218.72;5043761;28;20049;-72
2023/06/23 11:20:28;;;;;;;8.82;5.88;;;;;;;26.17;49.72;102215.53;5045411;28;20145;-71
2023/06/23 11:23:16;;;;;;;18.17;6.55;;;;;;;26.28;51.14;102218.28;5046018;28;20050;-73
2023/06/23 11:25:50;;;;;;;13.13;6.22;;;;;;;26.15;50.08;102221.03;5045574;28;20123;-73
2023/06/23 11:28:40;;;;;;;7.45;5.78;;;;;;;26.38;48.88;102217.56;5045525;28;20568;-73
2023/06/23 11:31:17;;;;;;;8.25;5.60;;;;;;;26.56;47.44;102217.97;5044269;28;20042;-73